Time;durP1;ratioP1;P1;durP2;ratioP2;P2;SDS_P1;SDS_P2;PMS_P1;PMS_P2;Temp;Humidity;BMP_temperature;BMP_pressure;BME280_temperature;BME280_humidity;BME280_pressure;Samples;Min_cycle;Max_cycle;Signal;HPM_P1;HPM_P2
2023/05/15 05:23:02;;;;;;;10.57;8.63;;;10.20;99.90;;;;;;5073841;28;20607;-80
2023/05/15 05:29:29;;;;;;;11.13;8.53;;;9.80;99.90;;;;;;5114259;27;20601;-80
2023/05/15 05:35:55;;;;;;;12.43;8.43;;;10.00;99.90;;;;;;5133457;27;20741;-80
2023/05/15 05:41:31;;;;;;;10.17;8.40;;;10.00;99.90;;;;;;5133956;27;20269;-80
2023/05/15 05:47:50;;;;;;;13.50;8.00;;;10.10;99.90;;;;;;5134736;27;20281;-79
2023/05/15 05:53:25;;;;;;;9.13;7.53;;;10.20;99.90;;;;;;5134516;27;20298;-79
2023/05/15 05:58:51;;;;;;;9.10;7.90;;;10.20;99.90;;;;;;5134328;27;20275;-79
2023/05/15 06:03:29;;;;;;;9.00;7.00;;;10.30;99.90;;;;;;5132827;27;20278;-79
2023/05/15 06:08:20;;;;;;;11.13;7.30;;;10.30;99.90;;;;;;5155086;27;20270;-79
2023/05/15 06:12:50;;;;;;;9.47;6.97;;;10.60;99.90;;;;;;5134886;27;20675;-79
2023/05/15 06:16:40;;;;;;;7.83;6.57;;;10.80;99.90;;;;;;5135403;27;20271;-81
2023/05/15 06:20:38;;;;;;;9.27;6.40;;;;;;;;;;5117992;27;20560;-79
2023/05/15 06:25:35;;;;;;;8.30;5.60;;;;;;;;;;5140365;27;20693;-79
2023/05/15 06:28:01;;;;;;;7.00;5.60;;;;;;;;;;5122138;28;20186;-79
2023/05/15 06:30:27;;;;;;;7.20;5.70;;;;;;;;;;5135148;28;20195;-80
2023/05/15 06:32:53;;;;;;;7.40;5.67;;;;;;;;;;5141149;28;20167;-79
2023/05/15 06:35:19;;;;;;;8.10;6.10;;;11.50;99.90;;;;;;5137390;28;20186;-80
2023/05/15 06:37:49;;;;;;;6.67;5.50;;;11.60;99.90;;;;;;5134098;27;20178;-79
2023/05/15 06:40:15;;;;;;;6.43;5.27;;;11.70;99.90;;;;;;5132553;28;20294;-79
2023/05/15 06:42:41;;;;;;;6.27;4.97;;;11.70;99.90;;;;;;5132882;28;20256;-79
2023/05/15 06:45:07;;;;;;;5.77;4.57;;;11.80;99.90;;;;;;5132248;28;20298;-79
2023/05/15 06:47:32;;;;;;;7.03;5.20;;;11.80;99.90;;;;;;5132560;28;20644;-79
2023/05/15 06:49:58;;;;;;;5.17;4.63;;;11.70;99.90;;;;;;5132588;28;20202;-79
2023/05/15 06:52:24;;;;;;;7.83;5.43;;;11.70;99.90;;;;;;5133839;27;20171;-79
2023/05/15 06:54:50;;;;;;;7.63;5.20;;;11.90;99.90;;;;;;5134098;27;20214;-79
2023/05/15 06:57:16;;;;;;;6.40;5.13;;;11.90;99.90;;;;;;5134271;27;20175;-79
2023/05/15 06:59:42;;;;;;;6.70;5.60;;;12.00;99.90;;;;;;5133385;27;20199;-80
2023/05/15 07:02:08;;;;;;;7.33;5.10;;;;;;;;;;5133874;27;20194;-80
2023/05/15 07:04:34;;;;;;;6.50;4.90;;;12.00;99.90;;;;;;5132181;28;20195;-80
2023/05/15 07:07:00;;;;;;;6.40;4.97;;;12.00;99.90;;;;;;5133798;27;20172;-79
2023/05/15 07:09:26;;;;;;;7.67;5.20;;;12.00;99.90;;;;;;5133693;27;20194;-79
2023/05/15 07:11:51;;;;;;;6.37;5.10;;;12.00;99.90;;;;;;5131992;28;20179;-79
2023/05/15 07:14:17;;;;;;;8.20;4.93;;;12.00;99.90;;;;;;5133751;27;20175;-79
2023/05/15 07:16:45;;;;;;;6.57;4.90;;;;;;;;;;5131846;28;20183;-79
2023/05/15 07:19:11;;;;;;;5.33;4.30;;;12.20;99.90;;;;;;5132587;28;20199;-80
2023/05/15 07:21:38;;;;;;;5.83;4.63;;;12.30;99.90;;;;;;5132472;28;20245;-80
2023/05/15 07:24:04;;;;;;;5.30;4.27;;;12.20;99.90;;;;;;5131780;28;20214;-80
2023/05/15 07:26:31;;;;;;;4.67;4.17;;;12.20;99.90;;;;;;5133672;27;20593;-80
2023/05/15 07:28:57;;;;;;;5.17;4.40;;;12.10;99.90;;;;;;5133068;27;20187;-80
2023/05/15 07:31:23;;;;;;;5.43;4.10;;;12.00;99.90;;;;;;5131901;28;20182;-80
2023/05/15 07:33:49;;;;;;;5.80;4.90;;;12.00;99.90;;;;;;5132678;28;20183;-80
2023/05/15 07:36:15;;;;;;;4.90;4.40;;;12.00;99.90;;;;;;5123621;27;20179;-80
2023/05/15 07:38:40;;;;;;;5.23;4.73;;;11.90;99.90;;;;;;5119021;28;20214;-80
2023/05/15 07:41:06;;;;;;;5.43;4.83;;;12.10;99.90;;;;;;5118539;28;20270;-80
2023/05/15 07:43:32;;;;;;;4.97;4.23;;;;;;;;;;5119756;28;20242;-80
2023/05/15 07:45:58;;;;;;;8.53;4.50;;;12.40;99.90;;;;;;5118127;28;20625;-80
2023/05/15 07:48:23;;;;;;;4.67;4.20;;;12.30;99.90;;;;;;5119053;28;20193;-80
2023/05/15 07:50:54;;;;;;;5.60;4.87;;;;;;;;;;5120784;27;20215;-80
2023/05/15 07:53:20;;;;;;;6.30;4.40;;;12.00;99.90;;;;;;5125792;28;20155;-80
2023/05/15 07:55:46;;;;;;;6.00;5.30;;;12.10;99.90;;;;;;5118442;28;20175;-80
2023/05/15 07:58:12;;;;;;;4.83;4.33;;;;;;;;;;5118195;28;20179;-80
2023/05/15 08:00:38;;;;;;;5.57;4.60;;;11.80;99.90;;;;;;5116744;28;20203;-80
2023/05/15 08:03:03;;;;;;;4.90;4.33;;;11.70;99.90;;;;;;5116508;28;20179;-80
2023/05/15 08:05:29;;;;;;;5.20;4.53;;;11.80;99.90;;;;;;5118154;28;20199;-80
2023/05/15 08:07:56;;;;;;;7.30;4.43;;;11.80;99.90;;;;;;5118457;27;20180;-80
2023/05/15 08:10:22;;;;;;;5.83;4.60;;;;;;;;;;5118023;28;20187;-80
2023/05/15 08:12:49;;;;;;;5.83;4.50;;;12.20;99.90;;;;;;5118412;28;20171;-80
2023/05/15 08:15:15;;;;;;;5.53;4.73;;;12.40;99.90;;;;;;5119140;28;20194;-80
2023/05/15 08:17:40;;;;;;;6.17;4.40;;;12.50;99.90;;;;;;5118421;28;20172;-80
2023/05/15 08:20:07;;;;;;;5.63;4.83;;;12.80;99.90;;;;;;5116940;28;20206;-80
2023/05/15 08:22:33;;;;;;;6.03;5.00;;;12.80;99.90;;;;;;5118555;28;20660;-80
2023/05/15 08:24:59;;;;;;;5.10;4.53;;;12.90;99.90;;;;;;5116912;28;20203;-80
2023/05/15 08:27:25;;;;;;;7.10;4.40;;;12.90;99.90;;;;;;5118200;28;20168;-80
2023/05/15 08:29:53;;;;;;;4.70;4.10;;;12.70;99.90;;;;;;5118212;28;20187;-80
2023/05/15 08:32:19;;;;;;;7.73;4.23;;;12.70;99.90;;;;;;5117036;28;20171;-80
2023/05/15 08:34:45;;;;;;;4.30;3.90;;;12.70;99.90;;;;;;5118554;28;20333;-80
2023/05/15 08:37:10;;;;;;;4.47;4.07;;;12.80;99.90;;;;;;5118120;28;20168;-80
2023/05/15 08:39:36;;;;;;;4.30;3.77;;;13.10;99.90;;;;;;5118622;28;20195;-80
2023/05/15 08:42:13;;;;;;;4.10;3.53;;;13.10;99.90;;;;;;5116324;28;20179;-80
2023/05/15 08:44:40;;;;;;;4.00;3.60;;;13.10;99.90;;;;;;5117902;28;20583;-80
2023/05/15 08:47:05;;;;;;;4.17;3.60;;;13.00;99.90;;;;;;5115669;28;20228;-80
2023/05/15 08:49:52;;;;;;;6.57;3.50;;;12.80;99.90;;;;;;5116692;28;20278;-80
2023/05/15 08:52:18;;;;;;;4.27;3.60;;;12.80;99.90;;;;;;5116209;28;20194;-80
2023/05/15 08:54:46;;;;;;;4.00;3.60;;;12.90;99.90;;;;;;5117317;28;20625;-80
2023/05/15 08:57:13;;;;;;;4.40;4.00;;;13.10;99.90;;;;;;5116103;28;20176;-80
2023/05/15 08:59:39;;;;;;;3.60;3.20;;;13.20;99.90;;;;;;5116145;28;20199;-80
2023/05/15 09:02:05;;;;;;;3.60;3.30;;;13.30;99.90;;;;;;5116105;28;20207;-80
2023/05/15 09:04:31;;;;;;;3.73;3.30;;;13.60;99.90;;;;;;5116030;28;20231;-80
2023/05/15 09:06:59;;;;;;;4.80;3.83;;;13.60;99.90;;;;;;5117762;28;20555;-80
2023/05/15 09:09:26;;;;;;;3.40;3.10;;;13.90;99.90;;;;;;5116209;28;20192;-80
2023/05/15 09:11:53;;;;;;;2.77;2.57;;;13.80;99.90;;;;;;5117544;28;20171;-80
2023/05/15 09:14:18;;;;;;;2.70;2.50;;;13.50;99.90;;;;;;5116031;28;20600;-80
2023/05/15 09:16:45;;;;;;;3.00;2.73;;;13.40;99.90;;;;;;5117601;28;20171;-80
2023/05/15 09:19:12;;;;;;;3.23;2.90;;;13.40;99.90;;;;;;5116072;28;20195;-80
2023/05/15 09:21:38;;;;;;;3.83;3.43;;;13.50;99.90;;;;;;5116551;28;20171;-80
2023/05/15 09:24:21;;;;;;;3.83;2.50;;;13.50;99.90;;;;;;5117212;28;20210;-80
2023/05/15 09:27:03;;;;;;;3.57;2.47;;;13.40;99.90;;;;;;5117031;28;20164;-80
2023/05/15 09:29:30;;;;;;;4.23;2.43;;;13.40;99.90;;;;;;5115900;28;20187;-80
2023/05/15 09:31:56;;;;;;;3.80;2.87;;;13.60;99.90;;;;;;5117565;28;20172;-80
2023/05/15 09:34:30;;;;;;;2.50;2.30;;;14.30;99.90;;;;;;5117383;28;20168;-80
2023/05/15 09:36:56;;;;;;;2.50;2.30;;;15.10;99.90;;;;;;5117594;28;20627;-80
2023/05/15 09:39:22;;;;;;;2.43;2.23;;;16.00;99.90;;;;;;5118536;28;20661;-80
2023/05/15 09:41:48;;;;;;;2.10;1.90;;;16.40;99.90;;;;;;5119669;28;20213;-81
2023/05/15 09:44:19;;;;;;;2.07;1.87;;;16.50;99.90;;;;;;5116984;28;20199;-80
2023/05/15 09:46:45;;;;;;;2.43;2.20;;;16.40;99.90;;;;;;5117589;28;20633;-81
2023/05/15 09:49:12;;;;;;;5.77;3.10;;;16.60;99.90;;;;;;5117403;28;20271;-81
2023/05/15 09:51:38;;;;;;;3.23;2.70;;;16.90;99.90;;;;;;5115509;28;20579;-81
2023/05/15 09:54:03;;;;;;;2.73;2.20;;;17.10;99.90;;;;;;5116029;28;20633;-81
2023/05/15 09:56:31;;;;;;;3.10;2.80;;;17.30;99.90;;;;;;5115477;28;20182;-81
2023/05/15 09:58:58;;;;;;;2.30;2.10;;;17.10;99.90;;;;;;5116542;28;20193;-81
2023/05/15 10:01:24;;;;;;;3.57;2.90;;;17.50;99.90;;;;;;5115596;28;20185;-81
2023/05/15 10:04:11;;;;;;;3.80;2.80;;;17.90;99.90;;;;;;5117092;28;20183;-80
2023/05/15 10:06:47;;;;;;;3.13;2.83;;;17.40;99.90;;;;;;5117268;28;20154;-80
2023/05/15 10:09:14;;;;;;;3.20;2.90;;;18.00;99.90;;;;;;5116661;28;20213;-81
2023/05/15 10:11:48;;;;;;;3.50;3.20;;;18.10;99.90;;;;;;5114835;28;20264;-78
2023/05/15 10:14:17;;;;;;;3.50;2.53;;;17.60;99.90;;;;;;5113245;28;20182;-78
2023/05/15 10:16:44;;;;;;;2.90;2.70;;;17.20;99.90;;;;;;5115906;28;20258;-78
2023/05/15 10:19:12;;;;;;;2.90;2.70;;;16.50;99.90;;;;;;5115776;28;20582;-78
2023/05/15 10:21:39;;;;;;;3.00;2.70;;;16.50;99.90;;;;;;5117251;28;20197;-78
2023/05/15 10:24:06;;;;;;;2.93;2.57;;;16.60;99.90;;;;;;5115883;28;20201;-78
2023/05/15 10:26:42;;;;;;;3.63;2.50;;;16.20;99.90;;;;;;5113158;28;20235;-78
2023/05/15 10:29:17;;;;;;;3.47;3.17;;;15.70;99.90;;;;;;5114554;28;20258;-77
2023/05/15 10:31:44;;;;;;;4.00;3.13;;;15.20;99.90;;;;;;5112612;28;20174;-77
2023/05/15 10:34:10;;;;;;;3.97;2.73;;;14.90;99.90;;;;;;5112951;28;20696;-77
2023/05/15 10:36:37;;;;;;;3.73;2.67;;;16.00;99.90;;;;;;5114147;28;20178;-77
2023/05/15 10:39:06;;;;;;;3.20;2.90;;;17.30;99.90;;;;;;5112753;28;20198;-77
2023/05/15 10:41:41;;;;;;;2.97;2.70;;;18.10;99.90;;;;;;5114272;28;20173;-77
2023/05/15 10:44:07;;;;;;;2.80;2.40;;;18.90;99.90;;;;;;5114886;28;20784;-77
2023/05/15 10:46:35;;;;;;;2.80;2.10;;;18.80;99.90;;;;;;5115522;28;20191;-77
2023/05/15 10:49:01;;;;;;;2.53;2.00;;;18.90;99.90;;;;;;5112818;28;20202;-77
2023/05/15 10:51:28;;;;;;;2.27;2.07;;;19.30;99.90;;;;;;5112974;28;20172;-77
2023/05/15 10:53:55;;;;;;;2.13;1.93;;;19.00;99.90;;;;;;5114579;28;20179;-77
2023/05/15 10:56:29;;;;;;;3.80;2.83;;;18.40;99.90;;;;;;5116275;28;20175;-81
2023/05/15 10:58:55;;;;;;;7.00;3.60;;;18.40;99.90;;;;;;5117164;28;20190;-80
2023/05/15 11:01:30;;;;;;;4.57;3.07;;;17.90;99.90;;;;;;5115255;28;20203;-81
2023/05/15 11:04:13;;;;;;;3.27;2.87;;;17.90;99.90;;;;;;5114597;28;20207;-80
2023/05/15 11:06:49;;;;;;;3.50;2.00;;;17.90;99.90;;;;;;5115652;28;20156;-80
2023/05/15 11:09:20;;;;;;;1.70;1.60;;;17.50;99.90;;;;;;5116339;28;20179;-81
2023/05/15 11:11:55;;;;;;;2.30;1.60;;;17.30;99.90;;;;;;5121370;28;20175;-81
2023/05/15 11:14:29;;;;;;;2.83;1.80;;;17.10;99.90;;;;;;5119129;28;20175;-81
2023/05/15 11:16:56;;;;;;;2.50;2.17;;;16.90;99.90;;;;;;5119324;28;20190;-79
2023/05/15 11:19:33;;;;;;;2.30;2.10;;;17.10;99.90;;;;;;5119336;28;20668;-79
2023/05/15 11:22:08;;;;;;;2.33;2.13;;;17.20;99.90;;;;;;5118020;28;20179;-79
2023/05/15 11:25:08;;;;;;;2.73;2.53;;;17.00;99.90;;;;;;5117398;28;20293;-79
2023/05/15 11:27:42;;;;;;;3.17;2.50;;;16.90;99.90;;;;;;5118105;28;20223;-80
2023/05/15 11:30:13;;;;;;;2.80;2.50;;;16.30;99.90;;;;;;5118340;28;20674;-83
2023/05/15 11:32:46;;;;;;;5.50;2.60;;;16.30;99.90;;;;;;5118504;28;20242;-78
2023/05/15 11:35:28;;;;;;;4.33;3.03;;;16.10;99.90;;;;;;5119026;28;20173;-79
2023/05/15 11:38:00;;;;;;;4.73;3.13;;;15.90;99.90;;;;;;5118039;28;20174;-79
2023/05/15 11:40:27;;;;;;;5.63;4.23;;;15.80;99.90;;;;;;5118874;28;20224;-78
2023/05/15 11:43:02;;;;;;;3.00;2.77;;;15.80;99.90;;;;;;5118244;28;20652;-78
2023/05/15 11:45:33;;;;;;;1.57;1.43;;;15.80;99.90;;;;;;5121098;28;20614;-78
2023/05/15 11:48:01;;;;;;;1.40;1.30;;;15.20;99.90;;;;;;5118911;28;20178;-78
2023/05/15 11:50:27;;;;;;;1.77;1.60;;;14.40;99.90;;;;;;5117487;28;20276;-78
2023/05/15 11:52:53;;;;;;;3.40;1.67;;;13.70;99.90;;;;;;5116768;28;20184;-81
2023/05/15 11:55:20;;;;;;;2.10;1.30;;;13.20;99.90;;;;;;5118258;28;20173;-82
2023/05/15 11:57:46;;;;;;;1.70;1.53;;;12.90;99.90;;;;;;5118768;28;20647;-77
2023/05/15 12:00:13;;;;;;;2.20;1.70;;;12.70;99.90;;;;;;5117503;28;20204;-78
2023/05/15 12:02:39;;;;;;;3.07;1.70;;;12.50;99.90;;;;;;5115799;28;20189;-77
2023/05/15 12:05:08;;;;;;;2.07;1.77;;;12.30;99.90;;;;;;5116399;28;20200;-77
2023/05/15 12:07:39;;;;;;;2.70;2.10;;;12.10;99.90;;;;;;5116772;28;20226;-78
2023/05/15 12:10:08;;;;;;;2.43;1.90;;;11.90;99.90;;;;;;5117033;28;20188;-78
2023/05/15 12:12:35;;;;;;;1.83;1.73;;;11.90;99.90;;;;;;5117397;28;20614;-78
2023/05/15 12:15:01;;;;;;;2.83;2.23;;;11.90;99.90;;;;;;5117222;28;20652;-78
2023/05/15 12:17:27;;;;;;;3.07;2.17;;;12.00;99.90;;;;;;5116109;28;20176;-78
2023/05/15 12:19:56;;;;;;;2.60;2.03;;;12.10;99.90;;;;;;5117310;28;20318;-79
2023/05/15 12:22:21;;;;;;;2.30;1.87;;;12.10;99.90;;;;;;5116609;28;20601;-78
2023/05/15 12:24:47;;;;;;;2.90;2.60;;;12.30;99.90;;;;;;5115827;28;20211;-78
2023/05/15 12:27:13;;;;;;;3.67;2.87;;;12.50;99.90;;;;;;5117053;28;20644;-78
2023/05/15 12:29:40;;;;;;;4.43;3.43;;;12.80;99.90;;;;;;5116999;28;20549;-78
2023/05/15 12:32:07;;;;;;;3.73;3.20;;;13.10;99.90;;;;;;5115328;28;20176;-77
2023/05/15 12:34:33;;;;;;;3.27;2.93;;;13.90;99.90;;;;;;5115829;28;20176;-80
2023/05/15 12:36:59;;;;;;;3.97;2.63;;;15.00;99.90;;;;;;5116662;28;20172;-79
2023/05/15 12:39:25;;;;;;;3.03;2.47;;;15.90;99.90;;;;;;5118051;28;20270;-80
2023/05/15 12:41:55;;;;;;;2.47;2.27;;;17.20;99.90;;;;;;5119019;28;20172;-82
2023/05/15 12:44:20;;;;;;;3.33;2.40;;;18.20;99.90;;;;;;5118455;28;20192;-82
2023/05/15 12:46:46;;;;;;;4.33;2.40;;;18.70;99.90;;;;;;5117668;28;20219;-80
2023/05/15 12:49:12;;;;;;;2.60;2.40;;;19.50;99.90;;;;;;5116383;28;20194;-80
2023/05/15 12:51:42;;;;;;;2.63;2.27;;;20.00;99.90;;;;;;5116933;28;20176;-80
2023/05/15 12:54:19;;;;;;;2.47;2.13;;;20.20;99.90;;;;;;5118325;28;20179;-81
2023/05/15 12:56:46;;;;;;;2.00;1.90;;;20.10;99.90;;;;;;5117192;28;20175;-80
2023/05/15 12:59:12;;;;;;;2.17;1.97;;;20.30;99.90;;;;;;5118609;28;20278;-80
2023/05/15 13:01:41;;;;;;;1.80;1.70;;;20.00;99.90;;;;;;5116926;28;20207;-81
2023/05/15 13:04:07;;;;;;;1.70;1.53;;;20.90;99.90;;;;;;5117259;28;20207;-81
2023/05/15 13:06:33;;;;;;;2.10;1.60;;;20.90;99.90;;;;;;5118572;28;20184;-81
2023/05/15 13:08:59;;;;;;;2.30;2.10;;;21.60;99.90;;;;;;5119728;28;20199;-78
2023/05/15 13:11:30;;;;;;;1.97;1.80;;;21.80;99.90;;;;;;5117331;28;20183;-80
2023/05/15 13:13:56;;;;;;;1.80;1.70;;;21.70;99.90;;;;;;5117165;28;20258;-78
2023/05/15 13:16:25;;;;;;;4.17;1.57;;;21.20;99.90;;;;;;5117522;28;20207;-78
2023/05/15 13:18:52;;;;;;;2.87;1.83;;;21.10;99.90;;;;;;5115548;28;20187;-78
2023/05/15 13:21:18;;;;;;;1.80;1.70;;;21.20;99.90;;;;;;5116821;28;20169;-80
2023/05/15 13:23:43;;;;;;;3.93;1.83;;;21.00;99.90;;;;;;5117217;28;20209;-80
2023/05/15 13:26:09;;;;;;;3.13;1.70;;;20.40;99.90;;;;;;5117323;28;20263;-78
2023/05/15 13:28:35;;;;;;;1.80;1.70;;;20.40;99.10;;;;;;5117567;28;20174;-78
2023/05/15 13:31:00;;;;;;;1.80;1.60;;;20.90;99.90;;;;;;5116686;28;20512;-80
2023/05/15 13:33:27;;;;;;;2.00;1.90;;;21.60;99.50;;;;;;5116284;28;20540;-79
2023/05/15 13:35:53;;;;;;;2.40;1.60;;;20.40;99.90;;;;;;5116921;28;20275;-78
2023/05/15 13:38:19;;;;;;;2.53;1.50;;;18.90;99.90;;;;;;5115241;28;20201;-78
2023/05/15 13:40:45;;;;;;;2.20;2.00;;;17.80;99.90;;;;;;5115440;28;20194;-80
2023/05/15 13:43:11;;;;;;;4.57;2.10;;;17.00;99.90;;;;;;5115914;28;20175;-80
2023/05/15 13:45:36;;;;;;;3.03;1.83;;;16.40;99.90;;;;;;5116052;28;20570;-80
2023/05/15 13:48:03;;;;;;;2.40;2.20;;;15.90;99.90;;;;;;5117342;28;20507;-79
2023/05/15 13:50:28;;;;;;;4.10;1.90;;;15.80;99.90;;;;;;5116286;28;20188;-79
2023/05/15 13:52:54;;;;;;;4.23;1.90;;;15.60;99.90;;;;;;5116246;28;20176;-80
2023/05/15 13:55:20;;;;;;;2.67;1.70;;;15.40;99.90;;;;;;5117177;28;20259;-79
2023/05/15 13:57:46;;;;;;;3.30;1.80;;;15.40;99.90;;;;;;5116607;28;20176;-80
2023/05/15 14:00:12;;;;;;;2.93;1.77;;;15.30;99.90;;;;;;5114723;28;20239;-80
2023/05/15 14:02:39;;;;;;;2.20;1.67;;;15.20;99.90;;;;;;5115795;28;20256;-79
2023/05/15 14:05:06;;;;;;;2.00;1.63;;;15.00;99.90;;;;;;5115969;28;20665;-80
2023/05/15 14:07:32;;;;;;;1.60;1.50;;;16.60;99.90;;;;;;5116558;28;20196;-81
2023/05/15 14:09:57;;;;;;;2.00;1.50;;;18.50;99.90;;;;;;5114575;28;20191;-79
2023/05/15 14:12:23;;;;;;;1.60;1.50;;;19.00;99.90;;;;;;5116196;28;20225;-80
2023/05/15 14:14:49;;;;;;;2.27;1.50;;;19.70;99.90;;;;;;5114178;28;20175;-80
2023/05/15 14:17:15;;;;;;;2.10;1.90;;;19.60;99.90;;;;;;5115970;28;20172;-80
2023/05/15 14:19:41;;;;;;;2.27;1.70;;;18.50;99.90;;;;;;5115619;28;20606;-79
2023/05/15 14:22:07;;;;;;;2.10;1.90;;;17.80;99.90;;;;;;5115815;28;20167;-80
2023/05/15 14:24:33;;;;;;;1.93;1.70;;;17.10;99.90;;;;;;5114424;28;20207;-79
2023/05/15 14:26:59;;;;;;;2.80;1.73;;;16.00;99.90;;;;;;5115563;28;20293;-79
2023/05/15 14:29:28;;;;;;;1.87;1.77;;;14.80;99.90;;;;;;5115873;28;20191;-80
2023/05/15 14:31:54;;;;;;;2.20;2.00;;;14.00;99.90;;;;;;5115585;28;20196;-79
2023/05/15 14:34:21;;;;;;;2.43;1.80;;;13.50;99.90;;;;;;5114024;28;20228;-79
2023/05/15 14:36:47;;;;;;;2.10;1.90;;;12.90;99.90;;;;;;5115504;28;20529;-79
2023/05/15 14:39:17;;;;;;;3.00;2.37;;;12.30;99.90;;;;;;5114028;28;20560;-79
2023/05/15 14:41:43;;;;;;;5.10;2.87;;;12.20;99.90;;;;;;5115191;28;20223;-79
2023/05/15 14:44:09;;;;;;;2.87;2.57;;;11.80;99.90;;;;;;5113531;28;20209;-79
2023/05/15 15:16:47;;;;;;;2.33;1.90;;;;;;;;;;5133353;27;20263;-80
2023/05/15 15:19:13;;;;;;;3.17;2.30;;;12.60;99.90;;;;;;5116144;28;20218;-79
2023/05/15 15:21:39;;;;;;;2.20;2.00;;;13.40;99.90;;;;;;5131870;27;20174;-78
2023/05/15 15:24:05;;;;;;;2.30;2.10;;;13.40;99.90;;;;;;5131921;27;20163;-77
2023/05/15 15:26:30;;;;;;;3.17;2.10;;;13.80;99.90;;;;;;5131781;27;20184;-78
2023/05/15 15:28:59;;;;;;;2.83;1.80;;;13.80;99.90;;;;;;5131023;28;20244;-79
2023/05/15 15:31:29;;;;;;;1.90;1.57;;;13.70;99.90;;;;;;5133520;27;20199;-79
2023/05/15 15:33:56;;;;;;;2.03;1.60;;;13.50;99.90;;;;;;5132322;28;20214;-79
2023/05/15 15:36:22;;;;;;;2.93;1.70;;;13.60;99.90;;;;;;5131744;28;20202;-79
2023/05/15 15:38:48;;;;;;;2.40;1.50;;;13.20;99.90;;;;;;5132491;28;20179;-79
2023/05/15 15:41:13;;;;;;;1.53;1.43;;;13.30;99.90;;;;;;5133964;27;20202;-79
2023/05/15 15:43:39;;;;;;;1.67;1.43;;;;;;;;;;5133631;27;20163;-78
2023/05/15 15:46:05;;;;;;;2.20;1.93;;;;;;;;;;5132349;28;20198;-76
2023/05/15 15:48:31;;;;;;;3.57;2.87;;;12.80;99.90;;;;;;5131948;28;20633;-79
2023/05/15 15:50:57;;;;;;;2.27;2.00;;;12.70;99.90;;;;;;5128947;27;20213;-77
2023/05/15 15:53:23;;;;;;;3.60;2.10;;;12.60;99.90;;;;;;5130117;27;20178;-78
2023/05/15 15:55:48;;;;;;;2.73;2.20;;;12.80;99.90;;;;;;5128573;28;20201;-77
2023/05/15 15:58:14;;;;;;;2.73;1.73;;;12.90;99.90;;;;;;5130084;28;20550;-77
2023/05/15 16:00:40;;;;;;;3.37;2.03;;;12.90;99.90;;;;;;5129760;27;20183;-77
2023/05/15 16:03:06;;;;;;;1.90;1.70;;;13.10;99.90;;;;;;5129993;27;20171;-79
2023/05/15 16:05:32;;;;;;;4.37;1.70;;;13.30;99.90;;;;;;5130491;27;20614;-77
2023/05/15 16:07:58;;;;;;;1.97;1.60;;;13.10;99.90;;;;;;5129394;28;20228;-77
2023/05/15 16:10:24;;;;;;;2.70;1.63;;;;;;;;;;5130645;27;20187;-77
2023/05/15 16:12:50;;;;;;;2.33;1.60;;;12.70;99.90;;;;;;5130767;27;20167;-78
2023/05/15 16:15:16;;;;;;;2.10;1.90;;;12.70;99.90;;;;;;5130450;27;20203;-79
2023/05/15 16:17:42;;;;;;;1.73;1.57;;;12.90;99.90;;;;;;5130807;27;20194;-79
2023/05/15 16:20:09;;;;;;;2.40;1.97;;;;;;;;;;5130651;27;20195;-77
2023/05/15 16:22:35;;;;;;;3.97;1.90;;;12.80;99.90;;;;;;5130528;27;20159;-79
2023/05/15 16:25:02;;;;;;;2.27;2.07;;;;;;;;;;5130423;27;20171;-77
2023/05/15 16:27:28;;;;;;;2.03;1.80;;;12.60;99.90;;;;;;5119205;28;20202;-79
2023/05/15 16:29:53;;;;;;;1.97;1.77;;;12.50;99.90;;;;;;5117832;28;21053;-79
2023/05/15 16:32:20;;;;;;;1.90;1.80;;;12.90;99.90;;;;;;5115923;28;20179;-80
2023/05/15 16:34:46;;;;;;;2.20;2.00;;;12.90;99.90;;;;;;5117150;28;20591;-79
2023/05/15 16:37:12;;;;;;;2.53;2.10;;;;;;;;;;5117286;28;20182;-79
2023/05/15 16:39:37;;;;;;;2.60;2.23;;;13.00;99.90;;;;;;5118874;28;20192;-79
2023/05/15 16:42:06;;;;;;;2.47;2.20;;;12.60;99.90;;;;;;5118323;28;20259;-79
2023/05/15 16:44:33;;;;;;;2.10;1.87;;;12.80;99.90;;;;;;5117815;28;20185;-79
2023/05/15 16:46:59;;;;;;;2.50;2.07;;;12.60;99.90;;;;;;5117447;28;20203;-79
2023/05/15 16:50:07;;;;;;;3.00;1.97;;;12.40;99.90;;;;;;5070871;28;21122;-77
2023/05/15 16:56:05;;;;;;;3.77;2.50;;;12.80;99.90;;;;;;5132284;27;20279;-77
2023/05/15 17:03:11;;;;;;;2.83;2.50;;;12.50;99.90;;;;;;5132480;27;20275;-79
2023/05/15 17:14:05;;;;;;;3.13;2.37;;;11.90;99.90;;;;;;5133960;27;20271;-81
2023/05/15 17:24:00;;;;;;;6.57;4.67;;;12.00;99.90;;;;;;5134362;27;20278;-79
2023/05/15 17:34:38;;;;;;;4.77;3.40;;;11.90;99.90;;;;;;5133744;27;20267;-79
